Time;durP1;ratioP1;P1;durP2;ratioP2;P2;SDS_P1;SDS_P2;PMS_P1;PMS_P2;Temp;Humidity;BMP_temperature;BMP_pressure;BME280_temperature;BME280_humidity;BME280_pressure;Samples;Min_cycle;Max_cycle;Signal;HPM_P1;HPM_P2
2022/12/29 00:01:34;;;;;;;78.72;44.58;;;;;;;7.32;100.00;99570.31;5134545;27;20043;-93
2022/12/29 00:04:02;;;;;;;73.15;40.63;;;;;;;7.30;100.00;99584.44;5136855;27;20083;-92
2022/12/29 00:06:29;;;;;;;68.68;39.55;;;;;;;7.27;100.00;99587.09;5137412;27;20046;-94
2022/12/29 00:08:54;;;;;;;67.07;36.95;;;;;;;7.34;100.00;99587.06;5136267;27;20038;-93
2022/12/29 00:11:23;;;;;;;56.83;30.30;;;;;;;7.40;100.00;99594.13;5137056;27;20038;-93
2022/12/29 00:16:48;;;;;;;53.13;28.92;;;;;;;8.00;100.00;99589.59;5093357;27;20385;-93
2022/12/29 00:37:00;;;;;;;44.30;25.15;;;;;;;8.62;100.00;99590.19;5170441;27;20118;-94
2022/12/29 00:45:26;;;;;;;48.90;22.15;;;;;;;8.80;100.00;99597.16;5143511;27;20384;-95
2022/12/29 00:47:52;;;;;;;38.67;21.92;;;;;;;8.73;100.00;99579.50;5107109;28;20412;-94
2022/12/29 00:50:18;;;;;;;37.33;21.35;;;;;;;8.78;100.00;99585.69;5107252;28;20046;-94
2022/12/29 00:52:44;;;;;;;37.70;19.88;;;;;;;8.76;100.00;99583.91;5113723;28;20134;-93
2022/12/29 00:55:10;;;;;;;31.70;19.10;;;;;;;8.62;100.00;99554.84;5105990;28;20043;-95
2022/12/29 00:57:36;;;;;;;34.75;19.63;;;;;;;8.61;100.00;99561.94;5107848;28;20035;-94
2022/12/29 01:00:02;;;;;;;37.63;20.08;;;;;;;8.77;100.00;99585.69;5109812;28;20493;-93
2022/12/29 01:02:29;;;;;;;44.22;21.10;;;;;;;8.70;100.00;99570.72;5109261;28;20044;-95
2022/12/29 01:04:55;;;;;;;34.55;19.33;;;;;;;8.72;100.00;99579.50;5109228;28;20067;-95
2022/12/29 01:07:21;;;;;;;32.65;18.88;;;;;;;8.80;100.00;99581.25;5107437;28;20048;-94
2022/12/29 01:12:47;;;;;;;34.00;18.38;;;;;;;8.81;100.00;99585.66;5135271;27;20869;-94
2022/12/29 01:15:14;;;;;;;30.92;17.98;;;;;;;8.72;100.00;99575.13;5133116;28;20049;-93
2022/12/29 01:17:40;;;;;;;28.70;16.20;;;;;;;8.59;100.00;99557.53;5133395;28;20023;-95
2022/12/29 01:20:07;;;;;;;29.30;15.43;;;;;;;8.62;100.00;99584.88;5133525;27;20134;-93
2022/12/29 01:22:33;;;;;;;28.75;16.90;;;;;;;8.46;100.00;99569.97;5131719;28;20088;-95
2022/12/29 01:24:58;;;;;;;27.58;16.15;;;;;;;8.62;100.00;99590.19;5133219;27;20035;-93
2022/12/29 01:27:24;;;;;;;30.80;15.13;;;;;;;8.61;100.00;99580.47;5133766;28;20035;-95
2022/12/29 01:29:52;;;;;;;27.75;15.18;;;;;;;8.47;100.00;99558.47;5133985;28;20039;-96
2022/12/29 01:32:17;;;;;;;29.23;14.82;;;;;;;8.66;100.00;99588.41;5133168;28;20047;-94
2022/12/29 01:34:44;;;;;;;31.13;15.40;;;;;;;8.39;100.00;99553.19;5133187;28;20514;-93
2022/12/29 01:37:10;;;;;;;25.48;13.32;;;;;;;8.36;100.00;99565.56;5133241;28;20100;-94
2022/12/29 01:39:36;;;;;;;31.80;16.35;;;;;;;8.30;100.00;99571.75;5133320;28;20046;-94
2022/12/29 01:42:02;;;;;;;28.45;16.40;;;;;;;8.28;100.00;99562.94;5133311;28;20488;-94
2022/12/29 01:44:52;;;;;;;32.00;16.83;;;;;;;8.38;100.00;99595.59;5133163;28;20036;-95
2022/12/29 01:47:25;;;;;;;28.73;16.77;;;;;;;8.28;100.00;99593.88;5131180;27;20036;-95
2022/12/29 01:49:54;;;;;;;34.45;17.23;;;;;;;7.99;100.00;99563.09;5117963;28;20036;-94
2022/12/29 01:52:21;;;;;;;38.22;18.08;;;;;;;8.11;100.00;99586.00;5133221;28;20060;-94
2022/12/29 01:54:52;;;;;;;34.05;19.63;;;;;;;7.91;100.00;99546.34;5132516;28;20047;-94
2022/12/29 01:57:22;;;;;;;35.75;19.02;;;;;;;7.98;100.00;99558.66;5132845;27;20504;-94
2022/12/29 01:59:56;;;;;;;31.92;17.67;;;;;;;7.97;100.00;99567.50;5132399;28;20035;-94
2022/12/29 02:02:23;;;;;;;32.83;17.50;;;;;;;7.96;100.00;99577.22;5132068;28;20500;-94
2022/12/29 02:04:49;;;;;;;33.78;17.83;;;;;;;7.97;100.00;99578.97;5133034;28;20051;-94
2022/12/29 02:07:18;;;;;;;30.98;15.45;;;;;;;8.06;100.00;99569.25;5132565;27;20041;-96
2022/12/29 02:09:47;;;;;;;29.23;16.00;;;;;;;8.23;100.00;99572.69;5132668;28;20075;-95
2022/12/29 02:12:14;;;;;;;30.48;15.65;;;;;;;8.30;100.00;99562.94;5131564;28;20048;-93
2022/12/29 02:14:39;;;;;;;27.50;14.70;;;;;;;8.18;100.00;99532.97;5131055;27;20484;-95
2022/12/29 02:17:14;;;;;;;26.70;14.20;;;;;;;8.47;100.00;99566.41;5131720;28;20084;-96
2022/12/29 02:20:22;;;;;;;27.00;14.77;;;;;;;8.53;100.00;99563.72;5124153;28;20122;-94
2022/12/29 02:23:03;;;;;;;22.45;12.07;;;;;;;8.61;100.00;99569.00;5123250;28;20048;-95
2022/12/29 02:26:01;;;;;;;26.75;13.18;;;;;;;8.76;100.00;99560.94;5115862;28;20091;-95
2022/12/29 02:29:08;;;;;;;24.98;12.70;;;;;;;8.87;100.00;99579.44;5118846;28;20057;-93
2022/12/29 02:31:41;;;;;;;26.13;13.88;;;;;;;8.91;100.00;99564.34;5036820;28;20388;-95
2022/12/29 02:34:21;;;;;;;24.25;11.63;;;;;;;8.98;100.00;99566.97;5022199;28;20073;-94
2022/12/29 02:36:51;;;;;;;;;;;;;;;9.04;100.00;99576.63;5025805;28;20612;-94
2022/12/29 02:39:26;;;;;;;23.27;11.75;;;;;;;8.96;100.00;99547.53;5020994;28;19921;-95
2022/12/29 02:42:01;;;;;;;20.27;11.10;;;;;;;8.98;100.00;99556.34;5020499;28;20099;-94
2022/12/29 02:44:36;;;;;;;20.33;11.93;;;;;;;8.97;100.00;99548.41;5020332;28;20045;-91
2022/12/29 02:47:12;;;;;;;19.85;11.65;;;;;;;8.91;100.00;99532.53;5020163;28;20049;-93
2022/12/29 02:49:48;;;;;;;26.27;12.20;;;;;;;8.93;100.00;99547.53;5037199;28;20132;-94
2022/12/29 02:52:18;;;;;;;22.67;12.60;;;;;;;8.96;100.00;99547.53;5016473;28;20044;-95
2022/12/29 02:54:44;;;;;;;23.05;12.00;;;;;;;8.86;100.00;99529.91;5020334;28;20521;-96
2022/12/29 02:57:15;;;;;;;25.35;11.32;;;;;;;8.87;100.00;99536.09;5020481;28;20048;-94
2022/12/29 02:59:43;;;;;;;21.73;12.23;;;;;;;8.81;100.00;99510.53;5020654;28;20045;-94
2022/12/29 03:02:24;;;;;;;24.38;12.65;;;;;;;8.85;100.00;99530.81;5062653;28;20023;-95
2022/12/29 03:05:07;;;;;;;24.42;13.77;;;;;;;8.80;100.00;99517.59;5117868;28;20036;-94
2022/12/29 03:07:43;;;;;;;21.77;13.23;;;;;;;8.84;100.00;99535.22;5117828;28;20081;-94
2022/12/29 03:10:18;;;;;;;26.95;14.25;;;;;;;8.73;100.00;99526.47;5118071;28;20135;-95
2022/12/29 03:16:05;;;;;;;31.17;14.80;;;;;;;8.61;100.00;99508.91;5134610;27;20375;-94
2022/12/29 03:18:45;;;;;;;23.98;14.00;;;;;;;8.67;100.00;99528.28;5100695;28;20040;-94
2022/12/29 03:21:19;;;;;;;25.52;14.35;;;;;;;8.65;100.00;99533.59;5107421;28;20045;-95
2022/12/29 03:23:48;;;;;;;31.73;15.73;;;;;;;8.73;100.00;99531.78;5107653;28;20044;-95
2022/12/29 03:26:18;;;;;;;29.60;14.18;;;;;;;8.79;100.00;99534.38;5103394;28;20031;-94
2022/12/29 03:28:50;;;;;;;30.27;14.27;;;;;;;8.63;100.00;99511.50;5108131;28;20068;-95
2022/12/29 03:31:19;;;;;;;25.60;14.10;;;;;;;8.52;100.00;99497.47;5105195;28;20482;-95
2022/12/29 03:33:46;;;;;;;;;;;;;;;8.77;100.00;99536.16;5125412;28;20044;-93
2022/12/29 03:36:23;;;;;;;25.77;14.48;;;;;;;8.69;100.00;99523.88;5102157;28;19926;-93
2022/12/29 03:38:57;;;;;;;23.90;14.25;;;;;;;8.69;100.00;99521.22;5098265;28;20051;-93
2022/12/29 03:41:27;;;;;;;27.27;14.27;;;;;;;8.69;100.00;99521.22;5113341;28;20043;-92
2022/12/29 03:43:53;;;;;;;28.55;15.13;;;;;;;8.76;100.00;99526.47;5115545;28;20054;-93
2022/12/29 03:46:20;;;;;;;24.45;14.25;;;;;;;8.52;100.00;99495.72;5108803;28;20040;-93
2022/12/29 03:48:46;;;;;;;25.92;14.60;;;;;;;8.60;100.00;99516.84;5123921;28;20046;-92
2022/12/29 03:51:12;;;;;;;25.70;13.73;;;;;;;8.63;100.00;99527.44;5103462;28;20040;-94
2022/12/29 03:53:38;;;;;;;27.35;13.93;;;;;;;8.40;100.00;99498.41;5101962;28;20068;-93
2022/12/29 03:56:04;;;;;;;22.83;14.07;;;;;;;8.51;100.00;99523.09;5112212;28;20040;-93
2022/12/29 03:58:29;;;;;;;24.50;13.48;;;;;;;8.45;100.00;99517.84;5106497;28;20041;-93
2022/12/29 04:00:56;;;;;;;21.50;12.80;;;;;;;8.43;100.00;99520.47;5113459;28;20052;-94
2022/12/29 04:03:23;;;;;;;27.90;13.85;;;;;;;8.32;100.00;99506.41;5103612;28;20406;-94
2022/12/29 04:05:49;;;;;;;21.75;12.45;;;;;;;8.43;100.00;99531.09;5106951;28;20043;-94
2022/12/29 04:08:15;;;;;;;22.05;12.00;;;;;;;8.38;100.00;99522.25;5105211;28;20559;-93
2022/12/29 04:10:41;;;;;;;22.38;13.07;;;;;;;8.26;100.00;99505.56;5102014;28;20051;-95
2022/12/29 04:13:07;;;;;;;27.42;13.30;;;;;;;8.20;100.00;99496.75;5103907;28;20032;-94
2022/12/29 04:15:32;;;;;;;24.80;13.55;;;;;;;8.36;100.00;99512.56;5109050;28;20130;-93
2022/12/29 04:17:58;;;;;;;23.88;13.00;;;;;;;8.30;100.00;99516.13;5118254;28;20071;-93
2022/12/29 04:23:26;;;;;;;21.48;12.52;;;;;;;8.44;100.00;99529.34;5108937;27;20384;-93
2022/12/29 04:25:52;;;;;;;25.75;12.60;;;;;;;8.49;100.00;99522.22;5073325;28;20036;-95
2022/12/29 04:28:18;;;;;;;20.88;11.80;;;;;;;8.61;100.00;99529.25;5073638;28;20094;-93
2022/12/29 04:30:45;;;;;;;25.08;13.07;;;;;;;8.59;100.00;99525.72;5072917;28;20020;-94
2022/12/29 04:33:10;;;;;;;21.60;12.10;;;;;;;8.56;100.00;99505.38;5073739;28;20155;-94
2022/12/29 04:35:36;;;;;;;26.27;13.10;;;;;;;8.64;100.00;99508.00;5072115;28;20049;-92
2022/12/29 04:38:03;;;;;;;26.80;13.02;;;;;;;8.73;100.00;99515.00;5071695;28;20490;-93
2022/12/29 04:40:30;;;;;;;23.67;12.48;;;;;;;8.81;100.00;99515.81;5073784;28;20048;-95
2022/12/29 04:42:56;;;;;;;19.42;11.75;;;;;;;9.05;100.00;99536.81;5072911;28;20036;-94
2022/12/29 04:45:22;;;;;;;24.77;11.82;;;;;;;9.07;100.00;99533.31;5072103;28;20041;-92
2022/12/29 04:47:50;;;;;;;21.88;12.48;;;;;;;9.11;100.00;99538.56;5072590;28;20071;-92
2022/12/29 04:50:16;;;;;;;20.30;11.95;;;;;;;8.96;100.00;99517.47;5072144;28;20070;-92
2022/12/29 04:52:42;;;;;;;27.75;13.38;;;;;;;9.04;100.00;99542.13;5072383;28;20049;-94
2022/12/29 04:55:08;;;;;;;22.60;12.00;;;;;;;8.81;100.00;99518.47;5073067;28;20044;-94
2022/12/29 04:57:35;;;;;;;22.45;11.88;;;;;;;8.89;100.00;99550.22;5073865;28;20040;-93
2022/12/29 05:00:02;;;;;;;17.95;10.90;;;;;;;8.77;100.00;99536.16;5073958;28;20041;-92
2022/12/29 05:02:28;;;;;;;25.13;12.18;;;;;;;8.78;100.00;99537.94;5072955;28;20387;-94
2022/12/29 05:04:54;;;;;;;33.30;12.95;;;;;;;8.71;100.00;99522.94;5073102;28;20094;-93
2022/12/29 05:07:20;;;;;;;22.15;12.50;;;;;;;8.89;100.00;99552.88;5073955;28;20032;-93
2022/12/29 05:09:46;;;;;;;23.98;12.27;;;;;;;8.78;100.00;99532.66;5075431;28;20085;-92
2022/12/29 05:12:12;;;;;;;20.75;12.13;;;;;;;8.90;100.00;99547.56;5072879;28;20041;-93
2022/12/29 05:14:39;;;;;;;23.38;12.05;;;;;;;8.89;100.00;99547.56;5073250;28;20051;-93
2022/12/29 05:17:05;;;;;;;20.30;11.25;;;;;;;8.80;100.00;99524.66;5072271;28;20451;-93
2022/12/29 05:19:31;;;;;;;22.70;11.32;;;;;;;8.87;100.00;99534.34;5071553;28;20068;-93
2022/12/29 05:21:57;;;;;;;18.33;11.38;;;;;;;8.96;100.00;99546.66;5071252;28;20137;-93
2022/12/29 05:24:23;;;;;;;21.42;11.25;;;;;;;8.92;100.00;99529.88;5074104;28;20090;-94
2022/12/29 05:26:49;;;;;;;19.23;11.50;;;;;;;8.99;100.00;99552.78;5073605;28;20032;-94
2022/12/29 05:29:15;;;;;;;25.10;12.05;;;;;;;8.85;100.00;99520.22;5073575;28;20520;-94
2022/12/29 05:31:42;;;;;;;20.92;13.18;;;;;;;8.95;100.00;99531.63;5073783;28;20471;-94
2022/12/29 05:34:10;;;;;;;18.27;11.15;;;;;;;8.88;100.00;99521.97;5064022;28;20490;-94
2022/12/29 05:36:38;;;;;;;19.23;11.90;;;;;;;8.95;100.00;99529.84;5062820;28;20049;-94
2022/12/29 05:39:07;;;;;;;24.33;12.27;;;;;;;8.97;100.00;99548.41;5061825;28;20398;-94
2022/12/29 05:41:33;;;;;;;21.00;11.68;;;;;;;8.95;100.00;99547.53;5058543;28;20060;-94
2022/12/29 05:44:00;;;;;;;21.77;12.20;;;;;;;8.90;100.00;99549.34;5058416;28;20371;-93
2022/12/29 05:46:26;;;;;;;20.83;11.30;;;;;;;9.00;100.00;99562.53;5057472;28;20021;-94
2022/12/29 05:48:53;;;;;;;19.25;10.73;;;;;;;8.99;100.00;99565.19;5057888;28;20090;-93
2022/12/29 05:51:19;;;;;;;21.65;11.52;;;;;;;8.82;100.00;99547.63;5057609;28;20549;-93
2022/12/29 05:53:45;;;;;;;20.52;10.82;;;;;;;8.81;100.00;99558.25;5056121;28;20084;-94
2022/12/29 05:56:10;;;;;;;23.25;12.65;;;;;;;8.81;100.00;99574.16;5058095;28;20041;-93
2022/12/29 05:58:36;;;;;;;22.25;11.48;;;;;;;8.73;100.00;99574.22;5058304;28;20037;-94
2022/12/29 06:01:02;;;;;;;17.02;10.35;;;;;;;8.68;100.00;99568.06;5057742;28;20119;-94
2022/12/29 06:03:28;;;;;;;19.05;10.75;;;;;;;8.53;100.00;99574.34;5058155;28;20495;-95
2022/12/29 06:05:55;;;;;;;20.17;10.35;;;;;;;8.29;100.00;99542.66;5057938;28;20062;-94
2022/12/29 06:08:21;;;;;;;21.83;10.73;;;;;;;8.20;100.00;99555.06;5058156;28;20049;-95
2022/12/29 06:10:47;;;;;;;23.58;11.80;;;;;;;8.27;100.00;99584.16;5057790;28;20457;-92
2022/12/29 06:13:13;;;;;;;21.88;11.35;;;;;;;8.15;100.00;99569.19;5057515;28;20563;-93
2022/12/29 06:15:39;;;;;;;17.83;10.90;;;;;;;8.13;100.00;99579.81;5057106;28;20394;-94
2022/12/29 06:18:04;;;;;;;21.52;11.75;;;;;;;8.09;100.00;99582.47;5060699;28;20487;-93
2022/12/29 06:20:30;;;;;;;19.13;10.65;;;;;;;7.97;100.00;99567.50;5056940;28;20048;-93
2022/12/29 06:22:58;;;;;;;18.35;10.25;;;;;;;7.89;100.00;99558.69;5056104;28;20057;-92
2022/12/29 06:25:23;;;;;;;21.08;10.95;;;;;;;7.96;100.00;99571.94;5056661;28;20116;-93
2022/12/29 06:27:49;;;;;;;23.17;11.57;;;;;;;7.91;100.00;99568.41;5057175;28;20435;-93
2022/12/29 06:30:16;;;;;;;20.90;12.18;;;;;;;7.98;100.00;99574.56;5055074;28;20052;-92
2022/12/29 06:32:42;;;;;;;21.67;10.82;;;;;;;7.91;100.00;99571.06;5056849;28;20513;-94
2022/12/29 06:35:09;;;;;;;16.98;10.05;;;;;;;7.95;100.00;99575.44;5056577;28;20044;-93
2022/12/29 06:37:35;;;;;;;18.30;10.48;;;;;;;7.95;100.00;99590.47;5056835;28;20124;-93
2022/12/29 06:40:03;;;;;;;19.52;10.80;;;;;;;7.83;100.00;99567.56;5057920;28;20064;-95
2022/12/29 06:42:28;;;;;;;18.50;10.93;;;;;;;7.93;100.00;99595.75;5058527;28;20502;-93
2022/12/29 06:44:57;;;;;;;18.55;10.55;;;;;;;7.79;100.00;99574.63;5057900;28;20139;-92
2022/12/29 06:47:23;;;;;;;27.20;11.10;;;;;;;7.81;100.00;99582.56;5055690;28;20518;-93
2022/12/29 06:49:48;;;;;;;17.55;10.65;;;;;;;7.85;100.00;99587.00;5056359;28;20048;-93
2022/12/29 06:52:14;;;;;;;21.50;10.63;;;;;;;7.97;100.00;99589.56;5056323;28;20041;-91
2022/12/29 06:54:40;;;;;;;18.23;9.98;;;;;;;7.95;100.00;99585.16;5055900;28;20051;-92
2022/12/29 06:57:08;;;;;;;16.60;9.88;;;;;;;8.06;100.00;99582.50;5088781;28;20040;-94
2022/12/29 06:59:33;;;;;;;16.42;10.55;;;;;;;8.34;100.00;99586.78;5056201;28;20040;-93
2022/12/29 07:02:01;;;;;;;20.63;11.55;;;;;;;8.50;100.00;99597.31;5055133;28;20088;-93
2022/12/29 07:04:27;;;;;;;28.90;11.07;;;;;;;8.55;100.00;99587.59;5056588;28;20041;-93
2022/12/29 07:06:53;;;;;;;20.23;10.38;;;;;;;8.68;100.00;99580.44;5055587;28;20047;-92
2022/12/29 07:09:19;;;;;;;21.25;10.55;;;;;;;8.75;100.00;99576.84;5054786;28;20080;-93
2022/12/29 07:11:45;;;;;;;18.17;10.32;;;;;;;8.88;100.00;99578.53;5056166;28;20041;-94
2022/12/29 07:14:12;;;;;;;17.77;10.05;;;;;;;9.07;100.00;99591.66;5055913;28;20111;-92
2022/12/29 07:16:38;;;;;;;20.75;10.93;;;;;;;9.11;100.00;99588.97;5055570;28;20041;-94
2022/12/29 07:19:04;;;;;;;20.23;9.75;;;;;;;8.98;100.00;99566.97;5056192;28;20048;-93
2022/12/29 07:21:30;;;;;;;18.30;9.23;;;;;;;9.04;100.00;99587.25;5046804;28;20143;-95
2022/12/29 07:23:56;;;;;;;26.08;13.00;;;;;;;8.91;100.00;99565.22;5056276;28;20135;-92
2022/12/29 07:26:22;;;;;;;27.50;16.30;;;;;;;8.98;100.00;99582.88;5055778;28;20465;-92
2022/12/29 07:28:48;;;;;;;19.23;11.30;;;;;;;9.04;100.00;99579.28;5056970;28;20032;-92
2022/12/29 07:31:18;;;;;;;20.77;11.95;;;;;;;9.02;100.00;99578.41;5056025;28;20033;-91
2022/12/29 07:33:46;;;;;;;17.75;10.20;;;;;;;9.04;100.00;99585.50;5056131;28;20041;-91
2022/12/29 07:36:13;;;;;;;16.37;10.20;;;;;;;8.94;100.00;99573.19;5055949;28;20037;-92
2022/12/29 07:38:39;;;;;;;17.05;9.63;;;;;;;9.00;100.00;99590.81;5056315;28;20041;-93
2022/12/29 07:41:06;;;;;;;19.17;9.65;;;;;;;8.98;100.00;99592.63;5056684;28;20021;-93
2022/12/29 07:43:32;;;;;;;18.73;10.02;;;;;;;9.00;100.00;99597.00;5056272;28;20048;-94
2022/12/29 07:45:57;;;;;;;18.35;9.35;;;;;;;8.90;100.00;99573.22;5055244;28;20045;-93
2022/12/29 07:48:25;;;;;;;18.45;10.38;;;;;;;9.08;100.00;99594.28;5054403;28;20135;-94
2022/12/29 07:50:52;;;;;;;17.75;10.18;;;;;;;9.04;100.00;99580.19;5037123;28;20049;-92
2022/12/29 07:53:18;;;;;;;16.50;9.57;;;;;;;9.12;100.00;99590.72;5044884;28;20364;-95
2022/12/29 07:55:44;;;;;;;16.90;9.73;;;;;;;9.17;100.00;99583.63;5057281;28;20091;-93
2022/12/29 07:58:10;;;;;;;19.80;9.10;;;;;;;9.28;100.00;99585.28;5056682;28;20063;-93
2022/12/29 08:00:36;;;;;;;17.80;10.18;;;;;;;9.53;100.00;99617.81;5057091;28;20414;-93
2022/12/29 08:03:01;;;;;;;15.88;9.45;;;;;;;9.58;100.00;99587.66;5056214;28;20136;-93
2022/12/29 08:05:30;;;;;;;23.08;12.20;;;;;;;9.80;100.00;99600.72;5056320;28;20056;-94
2022/12/29 08:07:58;;;;;;;13.88;8.68;;;;;;;9.89;100.00;99590.00;5057143;28;20076;-95
2022/12/29 08:10:24;;;;;;;17.38;10.07;;;;;;;10.09;100.00;99592.44;5057162;28;20121;-93
2022/12/29 08:12:50;;;;;;;17.92;9.52;;;;;;;10.19;100.00;99587.84;5057228;28;20060;-94
2022/12/29 08:15:16;;;;;;;18.75;8.90;;;;;;;10.39;100.00;99585.00;5056486;28;20048;-92
2022/12/29 08:17:41;;;;;;;15.23;9.10;;;;;;;10.69;100.00;99610.28;5055680;28;20095;-93
2022/12/29 08:20:08;;;;;;;13.65;7.93;;;;;;;10.90;100.00;99593.13;5055548;28;20100;-92
2022/12/29 08:22:36;;;;;;;14.30;7.20;;;;;;;10.96;100.00;99603.69;5055489;28;20049;-93
2022/12/29 08:25:02;;;;;;;12.48;7.43;;;;;;;11.07;100.00;99604.38;5054246;28;20041;-93
2022/12/29 08:27:28;;;;;;;13.43;8.05;;;;;;;11.26;100.00;99582.81;5054587;28;20049;-93
2022/12/29 08:29:54;;;;;;;13.80;7.35;;;;;;;11.49;100.00;99604.59;5055086;28;20079;-93
2022/12/29 08:32:20;;;;;;;14.68;7.18;;;;;;;11.58;98.93;99608.00;5054350;28;20041;-95
2022/12/29 08:34:46;;;;;;;16.60;7.50;;;;;;;11.46;99.57;99599.31;5056721;28;20041;-92
2022/12/29 08:37:11;;;;;;;13.93;7.50;;;;;;;11.45;99.09;99578.03;5057453;28;20067;-93
2022/12/29 08:39:39;;;;;;;19.70;7.28;;;;;;;11.80;98.37;99614.69;5055326;28;20059;-92
2022/12/29 08:42:06;;;;;;;12.18;6.90;;;;;;;11.85;95.30;99591.50;5055554;28;20506;-94
2022/12/29 08:44:32;;;;;;;14.52;6.85;;;;;;;11.88;96.77;99598.59;5055577;28;20037;-94
2022/12/29 08:46:58;;;;;;;14.95;7.13;;;;;;;11.97;96.22;99603.75;5054681;28;20040;-94
2022/12/29 08:49:23;;;;;;;11.27;7.15;;;;;;;12.01;96.08;99597.44;5055725;28;20033;-93
2022/12/29 08:51:49;;;;;;;19.50;7.85;;;;;;;12.18;94.51;99607.78;5056853;28;20033;-92
2022/12/29 08:54:15;;;;;;;11.45;7.15;;;;;;;12.13;95.29;99593.66;5056281;28;20406;-94
2022/12/29 08:56:42;;;;;;;11.55;6.82;;;;;;;11.82;94.94;99591.56;5057478;28;20052;-93
2022/12/29 08:59:08;;;;;;;12.65;7.40;;;;;;;11.67;95.51;99603.38;5055277;28;20132;-93
2022/12/29 09:01:36;;;;;;;15.10;8.35;;;;;;;11.45;97.91;99596.66;5054918;28;20060;-93
2022/12/29 09:04:02;;;;;;;15.13;8.13;;;;;;;11.27;97.95;99600.53;5053584;28;20060;-93
2022/12/29 09:06:28;;;;;;;16.38;8.80;;;;;;;11.27;98.32;99595.19;5055605;28;20041;-93
2022/12/29 09:08:54;;;;;;;16.05;8.38;;;;;;;11.34;99.20;99614.63;5057468;28;20052;-92
2022/12/29 09:11:23;;;;;;;16.45;8.00;;;;;;;11.38;99.32;99605.66;5059193;28;20094;-94
2022/12/29 09:13:52;;;;;;;17.55;9.25;;;;;;;11.50;98.47;99614.34;5058461;28;20431;-92
2022/12/29 09:16:19;;;;;;;15.43;8.55;;;;;;;11.51;98.32;99615.22;5058477;28;20052;-93
2022/12/29 09:18:45;;;;;;;13.45;8.40;;;;;;;11.50;98.78;99616.13;5056057;28;20039;-93
2022/12/29 09:21:12;;;;;;;15.85;8.20;;;;;;;11.43;98.52;99598.50;5056969;28;20069;-91
2022/12/29 09:23:39;;;;;;;14.55;8.10;;;;;;;11.72;97.83;99620.16;5056971;28;20434;-91
2022/12/29 09:26:05;;;;;;;14.77;8.32;;;;;;;11.37;98.32;99623.44;5055792;28;20052;-93
2022/12/29 09:28:31;;;;;;;15.32;8.18;;;;;;;11.01;100.00;99592.97;5056887;28;20049;-91
2022/12/29 09:30:59;;;;;;;15.30;8.38;;;;;;;11.27;100.00;99603.19;5055265;28;20101;-92
2022/12/29 09:33:25;;;;;;;13.35;7.63;;;;;;;11.38;99.49;99595.03;5057348;28;20041;-92
2022/12/29 09:35:53;;;;;;;14.02;8.73;;;;;;;11.42;99.06;99597.59;5056297;28;20049;-94
2022/12/29 09:38:20;;;;;;;13.70;8.30;;;;;;;11.53;99.42;99621.38;5058892;28;20064;-93
2022/12/29 09:40:50;;;;;;;16.30;8.60;;;;;;;11.29;99.59;99596.94;5055622;28;20045;-92
2022/12/29 09:43:39;;;;;;;14.75;8.82;;;;;;;11.41;99.70;99608.31;5057060;28;20072;-94
2022/12/29 09:46:19;;;;;;;20.02;9.45;;;;;;;11.44;99.64;99617.09;5057522;28;20029;-93
2022/12/29 09:48:50;;;;;;;17.58;9.07;;;;;;;11.55;99.39;99619.56;5070845;28;20013;-93
2022/12/29 09:51:22;;;;;;;21.15;9.57;;;;;;;11.51;99.56;99597.47;5057719;28;20048;-93
2022/12/29 09:53:54;;;;;;;17.17;9.20;;;;;;;11.65;99.37;99626.50;5056659;28;20071;-93
2022/12/29 09:56:23;;;;;;;17.60;8.73;;;;;;;11.63;99.75;99615.00;5058343;28;20285;-92
2022/12/29 09:58:53;;;;;;;16.52;9.20;;;;;;;11.71;99.70;99609.56;5056151;28;20056;-92
2022/12/29 10:01:28;;;;;;;15.73;8.48;;;;;;;11.82;98.46;99583.56;5053438;28;20037;-94
2022/12/29 10:03:56;;;;;;;18.63;8.82;;;;;;;12.03;97.47;99581.41;5085639;28;20566;-93
2022/12/29 10:06:26;;;;;;;13.30;7.57;;;;;;;12.29;96.78;99592.41;5057184;28;20036;-94
2022/12/29 10:08:59;;;;;;;15.48;8.80;;;;;;;12.39;96.30;99578.91;5085389;28;20037;-93
2022/12/29 10:11:40;;;;;;;17.13;8.27;;;;;;;12.61;95.45;99595.31;5056993;28;20033;-94
2022/12/29 10:14:23;;;;;;;18.92;9.68;;;;;;;12.53;94.64;99576.81;5056150;28;20037;-95
2022/12/29 10:16:59;;;;;;;13.65;8.02;;;;;;;12.59;95.07;99568.66;5055849;28;20434;-92
2022/12/29 10:19:39;;;;;;;11.95;7.43;;;;;;;12.72;94.55;99575.47;5056669;28;20033;-95
2022/12/29 10:22:24;;;;;;;16.75;8.57;;;;;;;12.58;94.63;99582.03;5053222;28;20045;-93
2022/12/29 10:24:53;;;;;;;15.20;9.10;;;;;;;12.45;95.28;99565.44;5054381;28;20524;-92
2022/12/29 10:27:19;;;;;;;14.50;7.63;;;;;;;12.44;94.41;99563.69;5055771;28;20375;-94
2022/12/29 10:29:51;;;;;;;15.45;7.63;;;;;;;12.40;95.23;99557.53;5056729;28;20037;-90
2022/12/29 10:32:26;;;;;;;14.23;7.00;;;;;;;12.48;94.84;99555.56;5055502;28;20041;-93
2022/12/29 10:34:58;;;;;;;11.50;6.85;;;;;;;12.61;94.33;99555.31;5056617;28;20098;-93
2022/12/29 10:37:32;;;;;;;12.48;7.22;;;;;;;12.65;95.25;99552.53;5057032;28;20061;-93
2022/12/29 10:39:59;;;;;;;11.25;6.63;;;;;;;12.97;94.01;99550.91;5056200;28;20102;-94
2022/12/29 10:42:28;;;;;;;15.55;6.78;;;;;;;13.10;92.37;99554.16;5089169;28;20072;-92
2022/12/29 10:44:56;;;;;;;13.70;8.10;;;;;;;13.10;93.69;99533.66;5055973;28;20433;-92
2022/12/29 10:47:26;;;;;;;11.15;6.53;;;;;;;13.24;92.95;99529.75;5054861;28;20048;-92
2022/12/29 10:49:53;;;;;;;11.30;7.07;;;;;;;13.37;92.04;99525.88;5056276;28;20060;-94
2022/12/29 10:52:22;;;;;;;15.05;7.85;;;;;;;13.60;91.39;99533.28;5056577;28;20029;-93
2022/12/29 10:54:53;;;;;;;12.45;7.28;;;;;;;13.64;90.09;99526.94;5056275;28;20044;-95
2022/12/29 10:57:29;;;;;;;15.68;7.28;;;;;;;13.89;89.53;99542.28;5057672;28;20059;-93
2022/12/29 10:59:55;;;;;;;11.00;7.20;;;;;;;13.98;88.80;99528.66;5056229;28;20036;-92
2022/12/29 11:02:53;;;;;;;14.63;7.20;;;;;;;13.92;88.77;99534.16;5055019;28;20048;-93
2022/12/29 11:05:29;;;;;;;13.60;6.53;;;;;;;13.89;88.37;99515.56;5053945;28;20040;-92
2022/12/29 11:07:59;;;;;;;11.77;6.68;;;;;;;13.83;88.64;99507.69;5056132;28;20569;-92
2022/12/29 11:10:36;;;;;;;13.38;7.50;;;;;;;13.78;89.07;99513.19;5055345;28;20111;-93
2022/12/29 11:13:10;;;;;;;11.07;6.22;;;;;;;13.75;86.55;99505.25;5088273;28;20037;-91
2022/12/29 11:15:40;;;;;;;12.48;6.60;;;;;;;13.83;87.21;99495.19;5053820;28;20033;-93
2022/12/29 11:18:18;;;;;;;8.90;5.80;;;;;;;14.10;84.89;99500.69;5056334;28;20056;-92
2022/12/29 11:20:46;;;;;;;13.13;6.32;;;;;;;14.25;85.46;99516.28;5055817;28;20037;-93
2022/12/29 11:23:23;;;;;;;13.70;5.85;;;;;;;14.31;84.61;99493.78;5056537;28;20048;-93
2022/12/29 11:26:07;;;;;;;9.43;5.63;;;;;;;14.48;83.72;99514.69;5054233;28;20037;-93
2022/12/29 11:28:34;;;;;;;9.23;4.93;;;;;;;14.56;82.33;99518.91;5054067;28;20128;-94
2022/12/29 11:31:02;;;;;;;9.15;5.53;;;;;;;14.39;82.82;99505.13;5054599;28;20068;-93
2022/12/29 11:33:28;;;;;;;11.48;5.93;;;;;;;14.37;83.36;99486.44;5055974;28;20063;-94
2022/12/29 11:36:02;;;;;;;13.25;5.70;;;;;;;14.39;84.00;99489.94;5058549;28;20029;-93
2022/12/29 11:38:35;;;;;;;11.60;6.18;;;;;;;14.35;83.88;99482.06;5055961;28;20079;-92
2022/12/29 11:41:02;;;;;;;10.88;6.15;;;;;;;14.37;83.64;99498.97;5056393;28;20045;-93
2022/12/29 11:43:33;;;;;;;14.73;6.13;;;;;;;14.15;84.75;99477.34;5058337;28;20025;-93
2022/12/29 11:46:00;;;;;;;14.38;6.88;;;;;;;14.15;85.86;99483.56;5056108;28;20071;-93
2022/12/29 11:48:32;;;;;;;11.60;6.82;;;;;;;14.35;84.93;99485.63;5055548;28;20399;-93
2022/12/29 11:50:59;;;;;;;12.75;6.07;;;;;;;14.43;84.72;99492.56;5054812;28;20054;-93
2022/12/29 11:53:28;;;;;;;13.02;7.45;;;;;;;14.18;84.49;99455.84;5054192;28;20042;-94
2022/12/29 11:55:58;;;;;;;13.18;7.55;;;;;;;14.15;85.56;99463.97;5055537;28;20039;-94
2022/12/29 11:58:29;;;;;;;12.75;7.50;;;;;;;14.02;86.06;99451.91;5053392;28;20045;-94
2022/12/29 12:00:57;;;;;;;9.45;6.40;;;;;;;13.99;86.23;99482.28;5055754;28;20040;-93
2022/12/29 12:03:27;;;;;;;11.77;6.18;;;;;;;14.04;86.62;99480.34;5057247;28;20036;-94
2022/12/29 12:05:58;;;;;;;11.75;5.93;;;;;;;14.07;85.68;99449.94;5056840;28;20090;-93